Time;durP1;ratioP1;P1;durP2;ratioP2;P2;SDS_P1;SDS_P2;PMS_P1;PMS_P2;Temp;Humidity;BMP_temperature;BMP_pressure;BME280_temperature;BME280_humidity;BME280_pressure;Samples;Min_cycle;Max_cycle;Signal;HPM_P1;HPM_P2
2022/05/03 00:01:02;;;;;;;0.45;0.45;;;12.90;53.20;;;;;;5130428;27;20058;-62
2022/05/03 00:03:38;;;;;;;0.55;0.55;;;12.80;53.30;;;;;;5121049;27;20019;-64
2022/05/03 00:06:54;;;;;;;1.83;0.55;;;12.80;53.50;;;;;;5127947;27;20024;-64
2022/05/03 00:09:31;;;;;;;2.33;0.80;;;12.80;53.80;;;;;;5081839;27;20060;-64
2022/05/03 00:12:01;;;;;;;0.60;0.60;;;12.70;53.90;;;;;;5111083;27;20031;-62
2022/05/03 00:14:44;;;;;;;0.65;0.65;;;12.60;54.20;;;;;;5122578;27;20034;-62
2022/05/03 00:17:14;;;;;;;1.05;0.70;;;12.60;54.40;;;;;;5108010;28;20088;-62
2022/05/03 00:19:42;;;;;;;0.95;0.80;;;12.60;54.60;;;;;;5109925;28;20042;-64
2022/05/03 00:22:08;;;;;;;0.43;0.43;;;12.60;54.60;;;;;;5120387;28;20103;-62
2022/05/03 00:24:34;;;;;;;0.80;0.80;;;12.50;54.80;;;;;;5113046;27;20032;-62
2022/05/03 00:27:00;;;;;;;0.80;0.80;;;12.50;54.80;;;;;;5126610;27;20037;-62
2022/05/03 00:29:29;;;;;;;0.73;0.73;;;12.50;54.90;;;;;;5113738;27;20031;-64
2022/05/03 00:31:57;;;;;;;0.70;0.70;;;12.40;55.00;;;;;;5123632;27;20036;-65
2022/05/03 00:34:23;;;;;;;4.15;0.80;;;12.50;55.10;;;;;;5126195;27;20031;-64
2022/05/03 00:36:49;;;;;;;0.95;0.80;;;12.40;55.20;;;;;;5128971;27;20039;-64
2022/05/03 00:39:15;;;;;;;1.42;0.63;;;12.40;55.20;;;;;;5108732;27;20409;-62
2022/05/03 00:41:43;;;;;;;1.15;0.60;;;12.30;55.30;;;;;;5131113;27;20504;-62
2022/05/03 00:47:15;;;;;;;0.75;0.75;;;12.30;55.70;;;;;;5122939;27;20474;-62
2022/05/03 00:50:08;;;;;;;0.98;0.70;;;12.30;55.80;;;;;;5127830;27;20039;-62
2022/05/03 00:52:37;;;;;;;0.30;0.30;;;12.20;56.00;;;;;;5100521;28;20389;-62
2022/05/03 00:55:30;;;;;;;0.50;0.50;;;12.20;56.20;;;;;;5102898;28;20423;-64
2022/05/03 00:58:12;;;;;;;1.10;1.02;;;12.20;56.90;;;;;;5092533;27;20040;-64
2022/05/03 01:01:01;;;;;;;1.00;0.77;;;12.10;56.40;;;;;;5117449;27;20015;-62
2022/05/03 01:03:34;;;;;;;0.85;0.85;;;12.10;56.50;;;;;;5117684;27;20083;-64
2022/05/03 01:06:09;;;;;;;0.82;0.82;;;12.10;56.70;;;;;;5131791;27;20059;-63
2022/05/03 01:09:01;;;;;;;0.68;0.68;;;12.00;56.70;;;;;;5131322;27;20031;-64
2022/05/03 01:11:47;;;;;;;0.82;0.82;;;12.00;57.00;;;;;;5114722;27;20365;-64
2022/05/03 01:14:34;;;;;;;1.17;0.90;;;11.90;57.10;;;;;;5121231;27;20062;-64
2022/05/03 01:17:05;;;;;;;0.68;0.68;;;11.80;57.20;;;;;;5122061;27;20023;-62
2022/05/03 01:19:43;;;;;;;1.10;1.00;;;11.80;57.40;;;;;;5133085;27;20039;-62
2022/05/03 01:22:43;;;;;;;0.90;0.68;;;11.80;57.50;;;;;;5133717;27;20392;-62
2022/05/03 01:25:09;;;;;;;0.80;0.80;;;11.80;57.60;;;;;;5089692;28;20509;-62
2022/05/03 01:28:01;;;;;;;0.88;0.70;;;11.70;57.60;;;;;;5124908;27;20029;-62
2022/05/03 01:30:29;;;;;;;;;;;11.70;57.80;;;;;;5101454;27;20099;-62
2022/05/03 01:33:05;;;;;;;0.80;0.80;;;11.70;57.90;;;;;;5094658;27;19911;-62
2022/05/03 01:35:37;;;;;;;0.50;0.50;;;11.60;57.80;;;;;;5100086;27;20123;-64
2022/05/03 01:38:49;;;;;;;1.27;0.70;;;11.60;58.20;;;;;;5129162;27;20030;-64
2022/05/03 01:41:39;;;;;;;0.70;0.68;;;11.50;58.30;;;;;;5066805;27;20039;-64
2022/05/03 01:44:13;;;;;;;1.30;1.17;;;11.40;58.70;;;;;;5132040;27;20058;-64
2022/05/03 01:46:39;;;;;;;0.98;0.82;;;11.40;58.80;;;;;;5129659;27;20429;-64
2022/05/03 01:52:31;;;;;;;0.82;0.75;;;11.40;59.10;;;;;;5105647;27;20042;-64
2022/05/03 01:55:25;;;;;;;1.08;0.80;;;11.40;59.10;;;;;;5094013;28;20077;-64
2022/05/03 01:57:53;;;;;;;1.00;0.95;;;11.40;59.40;;;;;;5122197;27;20380;-64
2022/05/03 02:00:22;;;;;;;1.48;1.02;;;11.30;60.00;;;;;;5113447;27;20027;-64
2022/05/03 02:03:09;;;;;;;1.10;0.90;;;11.30;59.60;;;;;;5130345;27;20035;-64
2022/05/03 02:05:46;;;;;;;1.08;0.82;;;11.30;59.90;;;;;;5105036;27;20478;-62
2022/05/03 02:08:20;;;;;;;2.65;0.85;;;11.30;60.10;;;;;;5109074;28;20371;-62
2022/05/03 02:11:24;;;;;;;1.30;1.05;;;11.20;60.00;;;;;;5119341;27;20429;-64
2022/05/03 02:16:54;;;;;;;1.33;0.95;;;11.20;60.40;;;;;;5107890;27;20401;-64
2022/05/03 02:19:47;;;;;;;1.52;1.10;;;11.20;60.50;;;;;;5116758;27;20379;-64
2022/05/03 02:22:12;;;;;;;;;;;11.20;60.60;;;;;;5117953;27;20069;-62
2022/05/03 02:25:07;;;;;;;1.60;1.27;;;11.20;60.80;;;;;;5105231;28;20363;-62
2022/05/03 02:27:35;;;;;;;1.30;1.20;;;11.10;60.70;;;;;;5115436;27;20046;-64
2022/05/03 02:30:03;;;;;;;1.33;1.23;;;11.10;61.10;;;;;;5100895;27;20038;-64
2022/05/03 02:32:40;;;;;;;2.55;1.27;;;11.10;61.20;;;;;;5097027;28;20039;-62
2022/05/03 02:35:09;;;;;;;2.38;1.42;;;11.10;61.30;;;;;;5073005;28;20107;-61
2022/05/03 02:37:46;;;;;;;1.58;1.27;;;11.10;61.30;;;;;;5101833;27;20095;-62
2022/05/03 02:40:18;;;;;;;6.70;1.55;;;11.10;61.30;;;;;;5105996;27;20028;-64
2022/05/03 02:42:45;;;;;;;4.80;1.50;;;11.10;61.30;;;;;;5124297;27;20035;-62
2022/05/03 02:45:13;;;;;;;1.48;1.27;;;11.00;61.40;;;;;;5131515;27;20047;-62
2022/05/03 02:47:52;;;;;;;1.13;1.02;;;11.00;61.60;;;;;;5110018;27;20099;-64
2022/05/03 02:50:20;;;;;;;1.20;1.10;;;11.00;61.70;;;;;;5130902;27;20023;-64
2022/05/03 02:53:09;;;;;;;1.15;1.05;;;10.90;61.90;;;;;;5129294;27;20031;-64
2022/05/03 02:55:40;;;;;;;1.10;1.00;;;10.90;62.00;;;;;;5109409;28;20027;-62
2022/05/03 02:58:14;;;;;;;0.87;0.83;;;10.90;62.00;;;;;;5105817;27;20030;-64
2022/05/03 03:04:15;;;;;;;1.98;1.15;;;10.80;62.10;;;;;;5131607;27;20572;-62
2022/05/03 03:06:42;;;;;;;1.60;1.17;;;10.80;62.30;;;;;;5128821;27;20038;-61
2022/05/03 03:09:12;;;;;;;1.83;1.38;;;10.70;62.50;;;;;;5130747;27;20020;-61
2022/05/03 03:11:53;;;;;;;2.85;1.73;;;10.70;62.70;;;;;;5130041;27;20068;-64
2022/05/03 03:14:35;;;;;;;2.10;1.38;;;10.70;62.90;;;;;;5106542;27;20474;-64
2022/05/03 03:17:07;;;;;;;2.97;1.25;;;10.70;63.00;;;;;;5093215;27;20027;-64
2022/05/03 03:19:38;;;;;;;1.67;1.02;;;10.60;63.50;;;;;;5109129;28;20073;-64
2022/05/03 03:22:11;;;;;;;1.30;1.20;;;10.60;63.50;;;;;;5113645;27;20412;-64
2022/05/03 03:24:41;;;;;;;11.20;2.03;;;10.60;63.60;;;;;;5131586;27;20110;-64
2022/05/03 03:27:10;;;;;;;1.38;1.15;;;10.60;63.70;;;;;;5111710;27;20023;-64
2022/05/03 03:29:38;;;;;;;1.23;1.17;;;10.60;63.90;;;;;;5112239;27;20019;-62
2022/05/03 03:32:06;;;;;;;2.00;1.40;;;10.60;63.90;;;;;;5095424;27;20419;-61
2022/05/03 03:34:33;;;;;;;1.63;1.52;;;10.50;63.90;;;;;;5111319;28;20046;-61
2022/05/03 03:37:04;;;;;;;1.33;1.15;;;10.60;63.90;;;;;;5089991;28;20106;-62
2022/05/03 03:39:31;;;;;;;2.17;1.63;;;10.60;63.90;;;;;;5090629;28;20035;-61
2022/05/03 03:42:08;;;;;;;1.63;1.48;;;10.50;64.50;;;;;;5094001;27;20315;-62
2022/05/03 03:44:34;;;;;;;2.40;1.10;;;10.50;63.90;;;;;;5097466;27;20505;-64
2022/05/03 03:47:01;;;;;;;1.60;1.50;;;10.50;63.80;;;;;;5095977;28;20024;-64
2022/05/03 03:49:28;;;;;;;1.83;1.15;;;10.50;63.90;;;;;;5089587;28;20028;-64
2022/05/03 03:51:55;;;;;;;4.50;1.27;;;10.50;64.00;;;;;;5089662;28;20024;-64
2022/05/03 03:54:21;;;;;;;1.17;1.08;;;10.50;64.20;;;;;;5129143;27;20096;-64
2022/05/03 03:56:49;;;;;;;3.20;1.23;;;10.40;64.10;;;;;;5110510;27;20134;-62
2022/05/03 03:59:15;;;;;;;1.30;1.20;;;10.40;64.20;;;;;;5125788;27;20056;-61
2022/05/03 04:01:41;;;;;;;1.80;1.35;;;10.40;64.20;;;;;;5106989;28;20043;-62
2022/05/03 04:04:08;;;;;;;2.17;1.17;;;10.40;64.20;;;;;;5104932;27;20042;-63
2022/05/03 04:06:35;;;;;;;2.15;1.67;;;10.30;64.20;;;;;;5089120;28;20024;-63
2022/05/03 04:09:01;;;;;;;2.13;1.30;;;10.30;64.20;;;;;;5120776;27;20055;-63
2022/05/03 04:11:27;;;;;;;1.48;1.25;;;10.30;64.40;;;;;;5095463;27;20056;-63
2022/05/03 04:13:53;;;;;;;1.40;1.30;;;10.30;64.50;;;;;;5110402;27;20600;-65
2022/05/03 04:16:19;;;;;;;1.92;1.20;;;10.30;64.60;;;;;;5108987;28;20035;-65
2022/05/03 04:18:45;;;;;;;1.40;1.30;;;10.20;64.60;;;;;;5112129;28;20470;-62
2022/05/03 04:21:18;;;;;;;2.45;1.20;;;10.20;64.70;;;;;;5094634;28;20062;-62
2022/05/03 04:23:45;;;;;;;1.25;0.80;;;10.20;64.80;;;;;;5089538;28;20024;-62
2022/05/03 04:26:14;;;;;;;2.30;1.58;;;10.10;64.80;;;;;;5108478;28;20430;-65
2022/05/03 04:28:40;;;;;;;2.40;1.80;;;10.10;64.80;;;;;;5109227;28;20020;-62
2022/05/03 04:31:06;;;;;;;1.08;1.05;;;10.10;64.90;;;;;;5100561;28;20072;-62
2022/05/03 04:33:33;;;;;;;4.15;1.67;;;10.10;64.90;;;;;;5099275;28;20031;-62
2022/05/03 04:35:58;;;;;;;1.42;1.33;;;10.10;65.00;;;;;;5105296;28;20028;-61
2022/05/03 04:38:24;;;;;;;2.58;1.35;;;10.00;65.10;;;;;;5101364;28;20027;-61
2022/05/03 04:40:56;;;;;;;5.90;1.67;;;10.00;65.50;;;;;;5105022;28;20051;-62
2022/05/03 04:43:22;;;;;;;4.43;1.45;;;10.00;65.20;;;;;;5083674;28;20036;-61
2022/05/03 04:45:48;;;;;;;3.55;1.77;;;10.00;65.30;;;;;;5089439;28;20055;-61
2022/05/03 04:48:14;;;;;;;3.45;1.75;;;10.00;65.40;;;;;;5088807;28;20024;-62
2022/05/03 04:50:41;;;;;;;3.35;2.08;;;10.00;65.50;;;;;;5089786;28;20026;-62
2022/05/03 04:53:06;;;;;;;2.70;2.08;;;10.00;65.70;;;;;;5100352;28;20156;-63
2022/05/03 04:55:32;;;;;;;2.50;1.65;;;10.00;65.80;;;;;;5108080;28;20126;-63
2022/05/03 04:57:58;;;;;;;3.13;1.80;;;10.00;65.80;;;;;;5109790;28;20042;-64
2022/05/03 05:00:23;;;;;;;2.42;2.03;;;10.00;65.90;;;;;;5107340;28;20121;-63
2022/05/03 05:02:49;;;;;;;3.20;1.73;;;10.00;65.80;;;;;;5099376;28;20402;-64
2022/05/03 05:05:15;;;;;;;1.73;1.48;;;10.10;66.00;;;;;;5109264;28;20019;-64
2022/05/03 05:07:40;;;;;;;2.13;1.15;;;10.10;66.10;;;;;;5073678;28;20035;-64
2022/05/03 05:10:26;;;;;;;3.35;1.75;;;10.10;66.10;;;;;;5104793;28;20050;-64
2022/05/03 05:12:53;;;;;;;2.22;1.45;;;10.10;66.40;;;;;;5088653;28;20599;-63
2022/05/03 05:15:21;;;;;;;2.58;1.98;;;10.10;66.30;;;;;;5094328;28;20028;-67
2022/05/03 05:17:47;;;;;;;1.80;1.65;;;10.20;66.50;;;;;;5099529;27;20027;-66
2022/05/03 05:20:12;;;;;;;0.85;0.82;;;10.20;66.40;;;;;;5092138;28;20604;-61
2022/05/03 05:22:38;;;;;;;4.47;1.63;;;10.20;66.40;;;;;;5074572;28;20031;-61
2022/05/03 05:25:04;;;;;;;3.13;1.40;;;10.30;66.50;;;;;;5074686;28;20374;-61
2022/05/03 05:27:30;;;;;;;3.47;1.25;;;10.30;66.70;;;;;;5110604;27;20031;-65
2022/05/03 05:29:56;;;;;;;2.90;1.70;;;10.40;66.70;;;;;;5105831;28;20012;-61
2022/05/03 05:32:25;;;;;;;1.25;0.98;;;10.40;66.80;;;;;;5131999;27;20089;-61
2022/05/03 05:34:50;;;;;;;1.48;1.17;;;10.40;66.70;;;;;;5131655;27;20092;-61
2022/05/03 05:37:16;;;;;;;1.42;1.33;;;10.40;66.50;;;;;;5131247;27;20036;-61
2022/05/03 05:39:41;;;;;;;1.48;1.20;;;10.50;66.50;;;;;;5074063;28;20434;-61
2022/05/03 05:42:07;;;;;;;2.55;1.63;;;10.50;66.50;;;;;;5092783;28;20027;-61
2022/05/03 05:44:33;;;;;;;2.85;1.40;;;10.50;66.60;;;;;;5119583;27;20146;-61
2022/05/03 05:46:58;;;;;;;1.42;1.33;;;10.60;66.40;;;;;;5087980;28;20496;-64
2022/05/03 05:49:24;;;;;;;1.05;0.85;;;10.60;66.30;;;;;;5118302;27;20031;-61
2022/05/03 05:51:50;;;;;;;1.52;1.02;;;10.70;66.10;;;;;;5106793;28;20058;-61
2022/05/03 05:54:18;;;;;;;0.88;0.65;;;10.70;65.90;;;;;;5102298;27;20043;-61
2022/05/03 05:56:45;;;;;;;0.52;0.52;;;10.70;65.70;;;;;;5082202;28;20030;-61
2022/05/03 05:59:10;;;;;;;2.08;1.02;;;10.80;65.60;;;;;;5105301;27;20055;-63
2022/05/03 06:01:40;;;;;;;1.50;1.00;;;10.80;65.40;;;;;;5119529;27;20031;-63
2022/05/03 06:04:06;;;;;;;2.25;0.63;;;10.90;65.30;;;;;;5107388;27;20031;-61
2022/05/03 06:06:32;;;;;;;0.70;0.70;;;10.90;65.00;;;;;;5110106;27;20332;-61
2022/05/03 06:09:05;;;;;;;0.52;0.52;;;10.90;64.80;;;;;;5112248;27;20098;-61
2022/05/03 06:11:31;;;;;;;2.20;1.25;;;11.00;64.50;;;;;;5114611;27;20788;-63
2022/05/03 06:13:56;;;;;;;1.48;1.35;;;11.10;64.30;;;;;;5106703;27;20031;-63
2022/05/03 06:16:22;;;;;;;1.33;0.95;;;11.10;64.00;;;;;;5077537;28;20106;-63
2022/05/03 06:18:48;;;;;;;1.02;0.88;;;11.20;63.70;;;;;;5099978;28;20047;-61
2022/05/03 06:21:14;;;;;;;1.23;0.63;;;11.20;63.50;;;;;;5087235;27;20024;-61
2022/05/03 06:23:39;;;;;;;4.13;0.63;;;11.30;63.30;;;;;;5112170;27;20080;-61
2022/05/03 06:26:06;;;;;;;0.85;0.68;;;11.40;63.00;;;;;;5118788;27;20042;-61
2022/05/03 06:28:33;;;;;;;0.50;0.50;;;11.40;62.60;;;;;;5085992;27;20533;-61
2022/05/03 06:30:59;;;;;;;0.47;0.43;;;11.50;61.90;;;;;;5096119;27;20019;-61
2022/05/03 06:33:24;;;;;;;0.50;0.50;;;11.50;61.70;;;;;;5106888;27;20040;-61
2022/05/03 06:35:50;;;;;;;0.43;0.30;;;11.60;61.20;;;;;;5101771;28;20027;-61
2022/05/03 06:38:16;;;;;;;0.45;0.45;;;11.60;60.90;;;;;;5103666;27;20031;-61
2022/05/03 06:40:41;;;;;;;0.45;0.45;;;11.70;60.30;;;;;;5113790;27;20465;-61
2022/05/03 06:43:08;;;;;;;0.75;0.40;;;11.70;59.90;;;;;;5114792;27;20106;-61
2022/05/03 06:45:34;;;;;;;0.80;0.40;;;11.70;59.80;;;;;;5119109;27;20152;-61
2022/05/03 06:48:00;;;;;;;1.42;0.68;;;11.80;59.20;;;;;;5085062;27;20499;-63
2022/05/03 06:50:27;;;;;;;0.30;0.30;;;11.90;58.80;;;;;;5118289;27;20107;-63
2022/05/03 06:52:53;;;;;;;0.20;0.20;;;12.00;58.50;;;;;;5113342;27;20027;-63
2022/05/03 06:55:19;;;;;;;0.40;0.40;;;12.00;58.30;;;;;;5109995;27;20040;-63
2022/05/03 06:57:44;;;;;;;0.38;0.38;;;12.10;58.20;;;;;;5106786;28;20650;-63
2022/05/03 07:00:11;;;;;;;0.82;0.82;;;12.20;58.10;;;;;;5109967;28;20489;-63
2022/05/03 07:02:37;;;;;;;1.67;0.75;;;12.30;57.40;;;;;;5122268;27;20042;-63
2022/05/03 07:05:04;;;;;;;0.50;0.45;;;12.40;57.40;;;;;;5104682;27;20028;-65
2022/05/03 07:07:30;;;;;;;0.80;0.80;;;12.40;57.20;;;;;;5112129;28;20016;-63
2022/05/03 07:09:58;;;;;;;1.33;0.80;;;12.40;56.80;;;;;;5112915;28;20469;-63
2022/05/03 07:12:24;;;;;;;0.93;0.90;;;12.50;56.80;;;;;;5109455;27;20028;-63
2022/05/03 07:14:58;;;;;;;0.63;0.60;;;12.60;57.00;;;;;;5091881;28;20028;-63
2022/05/03 07:22:52;;;;;;;0.88;0.68;;;12.80;57.50;;;;;;5086779;28;20182;-61
2022/05/03 07:25:18;;;;;;;1.63;0.80;;;12.80;57.60;;;;;;5097916;28;20111;-64
2022/05/03 07:27:46;;;;;;;1.13;0.80;;;12.90;57.70;;;;;;5112029;27;20028;-63
2022/05/03 07:30:16;;;;;;;0.88;0.85;;;13.00;57.80;;;;;;5102378;27;20397;-60
2022/05/03 07:32:48;;;;;;;0.70;0.70;;;13.10;57.80;;;;;;5104335;27;20405;-61
2022/05/03 07:35:14;;;;;;;;;;;13.10;57.80;;;;;;5110880;28;20377;-61
2022/05/03 07:37:40;;;;;;;0.93;0.90;;;13.20;57.90;;;;;;5086271;27;19915;-61
2022/05/03 07:40:07;;;;;;;2.35;1.55;;;13.20;57.80;;;;;;5115062;27;20028;-60
2022/05/03 07:42:34;;;;;;;1.23;1.13;;;13.30;57.70;;;;;;5090294;27;20039;-61
2022/05/03 07:45:00;;;;;;;1.85;1.67;;;13.30;57.70;;;;;;5116433;27;20563;-60
2022/05/03 07:47:25;;;;;;;1.10;1.00;;;13.40;57.70;;;;;;5106669;27;20142;-60
2022/05/03 07:49:51;;;;;;;1.20;1.10;;;13.50;57.80;;;;;;5111165;28;20519;-61
2022/05/03 07:52:17;;;;;;;2.00;0.90;;;13.60;57.80;;;;;;5094303;27;20450;-63
2022/05/03 07:54:44;;;;;;;2.20;1.25;;;13.70;57.70;;;;;;5099240;28;20032;-63
2022/05/03 07:57:12;;;;;;;1.13;1.02;;;13.70;57.60;;;;;;5073837;28;20131;-63
2022/05/03 07:59:39;;;;;;;2.35;1.42;;;13.80;57.70;;;;;;5103650;27;20045;-63
2022/05/03 08:02:04;;;;;;;1.13;1.02;;;13.90;57.70;;;;;;5113535;27;20035;-63
2022/05/03 08:04:30;;;;;;;2.13;1.25;;;14.00;57.70;;;;;;5087199;28;20519;-61
2022/05/03 08:06:56;;;;;;;5.68;1.65;;;14.10;57.70;;;;;;5105131;28;20036;-64
2022/05/03 08:09:22;;;;;;;1.70;1.10;;;14.10;57.50;;;;;;5063124;28;20024;-61
2022/05/03 08:11:47;;;;;;;3.10;1.52;;;14.20;57.40;;;;;;5102247;28;20363;-61
2022/05/03 08:14:13;;;;;;;1.27;1.10;;;14.20;57.60;;;;;;5080792;28;20024;-61
2022/05/03 08:16:39;;;;;;;2.10;1.60;;;14.20;57.60;;;;;;5109464;27;20031;-61
2022/05/03 08:19:05;;;;;;;1.92;1.60;;;14.30;57.40;;;;;;5110423;28;20110;-61
2022/05/03 08:21:35;;;;;;;2.15;1.42;;;14.40;57.40;;;;;;5111548;28;20040;-61
2022/05/03 08:24:02;;;;;;;1.25;1.10;;;14.40;57.30;;;;;;5108971;28;20119;-63
2022/05/03 08:26:29;;;;;;;3.25;1.30;;;14.40;57.40;;;;;;5109694;28;20023;-63
2022/05/03 08:28:55;;;;;;;3.45;2.20;;;14.50;57.50;;;;;;5077620;28;20463;-59
2022/05/03 08:31:21;;;;;;;1.92;1.48;;;14.60;57.50;;;;;;5088666;28;20437;-58
2022/05/03 08:33:47;;;;;;;1.40;1.30;;;14.70;57.60;;;;;;5089829;28;20474;-58
2022/05/03 08:36:14;;;;;;;2.13;1.23;;;14.80;57.40;;;;;;5096178;28;20416;-61
2022/05/03 08:42:01;;;;;;;1.85;1.67;;;14.90;56.90;;;;;;5093276;28;20104;-61
2022/05/03 08:44:31;;;;;;;1.80;1.52;;;14.90;56.70;;;;;;5079957;28;20112;-61
2022/05/03 08:47:02;;;;;;;2.70;1.63;;;14.90;56.80;;;;;;5115750;28;20028;-63
2022/05/03 08:49:36;;;;;;;1.50;1.40;;;14.90;56.90;;;;;;5117211;27;20028;-63
2022/05/03 08:52:03;;;;;;;3.38;2.10;;;15.00;57.10;;;;;;5094288;28;20454;-63
2022/05/03 08:54:31;;;;;;;1.77;1.35;;;15.10;57.00;;;;;;5105633;28;20419;-63
2022/05/03 08:56:57;;;;;;;1.42;1.33;;;15.10;56.90;;;;;;5098913;28;20030;-63
2022/05/03 08:59:24;;;;;;;1.25;0.90;;;15.10;56.90;;;;;;5122607;27;20031;-61
2022/05/03 09:01:50;;;;;;;1.45;1.08;;;15.20;57.10;;;;;;5117855;27;20041;-61
2022/05/03 09:04:16;;;;;;;1.45;1.35;;;15.30;57.00;;;;;;5071912;28;20028;-61
2022/05/03 09:06:46;;;;;;;3.22;2.17;;;15.40;56.90;;;;;;5102960;27;20031;-61
2022/05/03 09:09:16;;;;;;;2.08;1.60;;;15.60;56.80;;;;;;5102302;28;20023;-61
2022/05/03 09:11:45;;;;;;;2.38;1.35;;;15.60;56.60;;;;;;5098224;27;20019;-64
2022/05/03 09:14:11;;;;;;;1.42;1.27;;;15.60;56.70;;;;;;5108718;27;20032;-63
2022/05/03 09:16:48;;;;;;;1.75;1.35;;;15.60;56.80;;;;;;5099387;27;20034;-61
2022/05/03 09:19:25;;;;;;;1.88;1.70;;;15.60;56.90;;;;;;5065475;28;20028;-61
2022/05/03 09:25:09;;;;;;;5.80;1.35;;;15.70;57.00;;;;;;5104467;27;20134;-63
2022/05/03 09:27:34;;;;;;;1.42;1.30;;;15.70;57.00;;;;;;5098904;28;20467;-62
2022/05/03 09:30:10;;;;;;;1.85;1.17;;;15.70;57.10;;;;;;5112400;27;20057;-62
2022/05/03 09:32:40;;;;;;;2.15;1.58;;;15.70;57.20;;;;;;5097923;28;20032;-62
2022/05/03 09:35:26;;;;;;;1.75;1.60;;;15.70;57.50;;;;;;5099792;28;20027;-62
2022/05/03 09:37:52;;;;;;;1.58;1.48;;;15.70;57.70;;;;;;5096311;27;20081;-64
2022/05/03 09:40:18;;;;;;;2.70;1.48;;;15.70;57.60;;;;;;5104601;27;20475;-62
2022/05/03 09:42:55;;;;;;;3.85;1.08;;;15.80;57.70;;;;;;5090900;28;20031;-62
2022/05/03 09:45:25;;;;;;;3.15;1.63;;;15.80;57.50;;;;;;5099371;27;20448;-62
2022/05/03 09:47:56;;;;;;;2.38;1.70;;;15.80;57.50;;;;;;5101164;28;20035;-62
2022/05/03 09:50:41;;;;;;;1.55;1.27;;;15.80;57.20;;;;;;5087467;27;20026;-61
2022/05/03 09:53:18;;;;;;;1.83;1.60;;;15.80;57.30;;;;;;5108708;27;20023;-63
2022/05/03 09:55:48;;;;;;;1.63;1.40;;;15.80;57.50;;;;;;5101659;28;20066;-64
2022/05/03 09:58:17;;;;;;;1.52;1.13;;;15.80;58.20;;;;;;5108093;27;20126;-63
2022/05/03 10:00:46;;;;;;;2.10;1.50;;;15.80;57.80;;;;;;5108378;28;20028;-61
2022/05/03 10:03:12;;;;;;;2.60;1.10;;;15.80;57.80;;;;;;5109110;27;20529;-62
2022/05/03 10:05:43;;;;;;;2.22;1.45;;;15.80;57.70;;;;;;5108966;28;20024;-64
2022/05/03 10:08:16;;;;;;;2.33;1.88;;;15.80;57.80;;;;;;5108672;28;20027;-64
2022/05/03 10:10:43;;;;;;;4.88;2.20;;;15.80;57.90;;;;;;5106863;27;20027;-64
2022/05/03 10:13:11;;;;;;;2.72;1.85;;;15.90;58.00;;;;;;5109938;28;20034;-64
2022/05/03 10:21:30;;;;;;;3.70;1.92;;;16.10;58.20;;;;;;5098222;28;20045;-65
2022/05/03 10:24:02;;;;;;;3.22;2.17;;;16.10;58.10;;;;;;5104483;27;20106;-65
2022/05/03 10:26:50;;;;;;;2.75;1.80;;;16.10;58.10;;;;;;5109481;28;20028;-65
2022/05/03 10:29:15;;;;;;;0.95;0.95;;;16.30;58.10;;;;;;5095794;28;20470;-64
2022/05/03 10:31:54;;;;;;;2.22;2.03;;;16.60;57.70;;;;;;5089937;28;20074;-65
2022/05/03 10:34:43;;;;;;;2.55;1.80;;;16.90;57.10;;;;;;5108637;28;20076;-61
2022/05/03 10:37:14;;;;;;;2.08;1.85;;;17.20;56.50;;;;;;5082721;28;20028;-61
2022/05/03 10:39:55;;;;;;;2.22;1.80;;;17.20;56.20;;;;;;5108707;28;20030;-62
2022/05/03 10:42:26;;;;;;;2.80;2.55;;;17.30;56.50;;;;;;5123123;27;20451;-61
2022/05/03 10:45:07;;;;;;;1.83;1.70;;;17.20;56.70;;;;;;5086120;28;20608;-64
2022/05/03 10:47:48;;;;;;;3.92;1.90;;;17.20;56.90;;;;;;5109150;28;20445;-64
2022/05/03 10:50:17;;;;;;;1.98;1.70;;;17.20;56.90;;;;;;5100975;28;20031;-65
2022/05/03 10:52:55;;;;;;;1.52;1.33;;;17.10;57.10;;;;;;5089988;28;20202;-61
2022/05/03 10:55:22;;;;;;;1.83;1.65;;;17.10;57.10;;;;;;5107501;28;20069;-61
2022/05/03 10:58:26;;;;;;;1.25;1.15;;;17.10;57.30;;;;;;5108729;28;20128;-61
2022/05/03 11:01:20;;;;;;;2.08;1.30;;;17.30;57.10;;;;;;5094797;27;20028;-60
2022/05/03 11:03:52;;;;;;;1.38;1.27;;;17.70;56.70;;;;;;5115703;27;20082;-61
2022/05/03 11:06:26;;;;;;;1.58;1.20;;;18.00;56.30;;;;;;5112600;27;20026;-61
2022/05/03 11:14:21;;;;;;;1.20;1.10;;;18.30;55.20;;;;;;5110145;27;20117;-64
2022/05/03 11:16:47;;;;;;;2.47;1.60;;;18.20;55.20;;;;;;5102747;27;20020;-64
2022/05/03 11:19:23;;;;;;;2.03;1.77;;;18.20;55.40;;;;;;5106423;27;20469;-64
2022/05/03 11:21:50;;;;;;;4.85;2.33;;;18.50;55.20;;;;;;5098245;28;20366;-61
2022/05/03 11:24:23;;;;;;;2.13;1.65;;;18.70;54.50;;;;;;5102511;28;20032;-61
2022/05/03 11:26:50;;;;;;;0.93;0.93;;;19.00;54.20;;;;;;5100589;27;20470;-61
2022/05/03 11:29:17;;;;;;;1.52;1.30;;;19.30;53.50;;;;;;5105215;27;20028;-61
2022/05/03 11:31:50;;;;;;;1.52;1.42;;;19.40;53.10;;;;;;5099600;27;20137;-64
2022/05/03 11:34:18;;;;;;;1.83;1.17;;;19.50;52.30;;;;;;5114725;27;20027;-64
2022/05/03 11:36:47;;;;;;;1.52;1.40;;;19.40;52.40;;;;;;5104954;27;20100;-63
2022/05/03 11:39:14;;;;;;;4.22;2.10;;;19.10;52.70;;;;;;5089124;28;20054;-63
2022/05/03 11:41:39;;;;;;;1.50;1.40;;;18.90;52.60;;;;;;5106199;27;20040;-64
2022/05/03 11:44:05;;;;;;;1.33;1.10;;;18.60;52.70;;;;;;5106388;27;20046;-63
2022/05/03 11:46:31;;;;;;;2.67;1.45;;;18.40;53.20;;;;;;5109104;27;20054;-63
2022/05/03 11:49:02;;;;;;;1.17;1.08;;;18.20;53.40;;;;;;5112329;27;20104;-64
2022/05/03 11:57:12;;;;;;;2.35;1.40;;;17.90;54.80;;;;;;5089977;28;20051;-61
2022/05/03 11:59:44;;;;;;;1.70;1.60;;;17.80;54.10;;;;;;5092456;27;20028;-61
2022/05/03 12:02:14;;;;;;;2.83;1.73;;;17.90;54.10;;;;;;5098555;28;20093;-63
2022/05/03 12:04:59;;;;;;;1.38;1.17;;;18.20;53.90;;;;;;5099362;27;20027;-62
2022/05/03 12:07:25;;;;;;;2.85;1.58;;;18.50;53.40;;;;;;5097579;28;20032;-63
2022/05/03 12:09:51;;;;;;;1.80;0.95;;;18.50;53.10;;;;;;5089987;28;20722;-64
2022/05/03 12:12:45;;;;;;;2.20;1.30;;;18.50;53.20;;;;;;5073936;28;20113;-64
2022/05/03 12:15:24;;;;;;;1.02;0.60;;;18.30;53.30;;;;;;5101922;28;20032;-64
2022/05/03 12:17:55;;;;;;;1.08;0.98;;;18.30;53.70;;;;;;5101107;28;20067;-63
2022/05/03 12:20:22;;;;;;;2.08;1.38;;;18.10;53.90;;;;;;5102743;28;20036;-63
2022/05/03 12:23:08;;;;;;;2.75;1.65;;;18.00;54.20;;;;;;5107833;28;20048;-63
2022/05/03 12:25:34;;;;;;;2.08;1.45;;;17.90;54.50;;;;;;5105345;28;20024;-61
2022/05/03 12:28:05;;;;;;;2.70;1.60;;;17.80;54.80;;;;;;5104024;28;20034;-61
2022/05/03 12:30:31;;;;;;;1.80;1.67;;;17.70;55.10;;;;;;5094970;28;20032;-61
2022/05/03 12:33:05;;;;;;;3.78;1.80;;;17.70;55.30;;;;;;5105005;28;20026;-61
2022/05/03 12:35:35;;;;;;;1.52;1.42;;;17.60;55.50;;;;;;5097089;28;20032;-61
2022/05/03 12:38:09;;;;;;;2.55;1.75;;;17.50;55.50;;;;;;5075490;28;20059;-61
2022/05/03 12:40:43;;;;;;;1.73;1.60;;;17.50;55.60;;;;;;5103207;28;20485;-60
2022/05/03 12:43:11;;;;;;;2.20;1.63;;;17.40;55.70;;;;;;5102195;28;20020;-61
2022/05/03 12:45:37;;;;;;;1.83;1.23;;;17.40;55.80;;;;;;5099688;28;20059;-60
2022/05/03 12:48:03;;;;;;;1.42;1.17;;;17.40;56.00;;;;;;5108299;28;20415;-61
2022/05/03 12:50:29;;;;;;;2.65;1.67;;;17.30;56.70;;;;;;5099230;28;20032;-61
2022/05/03 12:52:54;;;;;;;4.43;1.70;;;17.20;56.20;;;;;;5100270;28;20352;-61
2022/05/03 12:55:20;;;;;;;3.78;1.63;;;17.30;56.30;;;;;;5108478;28;20106;-61
2022/05/03 13:00:32;;;;;;;4.63;2.55;;;17.10;56.40;;;;;;5103508;28;20051;-61
2022/05/03 13:03:01;;;;;;;3.55;2.70;;;17.00;56.70;;;;;;5108115;28;20053;-61
2022/05/03 13:05:26;;;;;;;7.65;4.32;;;16.90;57.80;;;;;;5118765;28;20409;-61
2022/05/03 13:07:52;;;;;;;9.63;5.00;;;16.80;58.70;;;;;;5110783;28;20056;-61
2022/05/03 13:10:18;;;;;;;7.32;4.53;;;16.70;59.60;;;;;;5087141;28;20032;-64
2022/05/03 13:12:43;;;;;;;7.63;4.78;;;16.60;60.30;;;;;;5105731;28;20043;-64
2022/05/03 13:15:10;;;;;;;14.07;5.30;;;16.50;60.60;;;;;;5090641;28;20036;-64
2022/05/03 13:17:36;;;;;;;9.20;5.25;;;16.40;60.90;;;;;;5112794;28;20112;-64
2022/05/03 13:20:04;;;;;;;13.60;4.43;;;16.40;61.10;;;;;;5103207;28;20031;-64
2022/05/03 13:22:32;;;;;;;10.00;4.38;;;16.30;61.60;;;;;;5111024;28;20047;-64
2022/05/03 13:24:57;;;;;;;9.85;5.68;;;16.20;61.80;;;;;;5107887;28;20504;-61
2022/05/03 13:27:23;;;;;;;9.45;5.20;;;16.20;62.10;;;;;;5096750;28;20024;-60
2022/05/03 13:29:48;;;;;;;6.50;4.10;;;16.20;62.30;;;;;;5103150;28;20038;-64
2022/05/03 13:32:14;;;;;;;9.38;5.63;;;16.10;62.40;;;;;;5075049;28;20020;-61
2022/05/03 13:34:40;;;;;;;8.60;3.55;;;16.10;62.40;;;;;;5107017;28;20043;-61
2022/05/03 13:42:33;;;;;;;7.93;4.57;;;16.00;63.00;;;;;;5092558;28;20034;-64
2022/05/03 13:44:59;;;;;;;7.30;4.63;;;16.00;63.10;;;;;;5091284;28;20059;-64
2022/05/03 13:47:25;;;;;;;8.50;5.05;;;16.00;63.30;;;;;;5107032;27;20031;-64
2022/05/03 13:49:51;;;;;;;8.40;5.85;;;16.00;63.20;;;;;;5106172;27;20032;-61
2022/05/03 13:52:18;;;;;;;9.63;5.68;;;16.00;63.40;;;;;;5102230;27;20560;-61
2022/05/03 13:54:44;;;;;;;8.73;3.85;;;16.00;63.40;;;;;;5103282;27;20053;-61